Delta, South Carolina
Current Conditions -  °F | °C
As of 4:35 PM on Thursday 23 Oct 2014 (Local Time) from KEOE Reporting Station
Clear Clear  
Wind Chill: 70°   Ceiling: Unl
Heat Index: 70°   Visibility: 10mi
Dew Point: 43°   Wind: 6mph
Humidity: 38%   Direction: 310°NW
Pressure: 30.02"   Gusts: NA
Location:  34.4658°N, 81.5706°W
Report Text: KEOE 232035Z AUTO 31005KT 10SM CLR 21/06 A3002 RMK AO2
Loading
Personal Weather Stations






























Interactive Weather Map
Tropical Storm Tracking
New forecast layout! Learn more

10-Day Weather Forecast

Advertisements
Track Severe Weather on mobile